Time;durP1;ratioP1;P1;durP2;ratioP2;P2;SDS_P1;SDS_P2;PMS_P1;PMS_P2;Temp;Humidity;BMP_temperature;BMP_pressure;BME280_temperature;BME280_humidity;BME280_pressure;Samples;Min_cycle;Max_cycle;Signal;HPM_P1;HPM_P2
2021/04/16 00:02:04;264305.00;0.88;456.55;84271.00;0.28;146.41;;;;;11.70;1.00;;;;;;2263976;61;1502;-86
2021/04/16 00:04:30;169970.00;0.57;294.21;86952.00;0.29;151.04;;;;;11.40;1.00;;;;;;2263904;61;966;-85
2021/04/16 00:06:56;211119.00;0.70;365.06;85861.00;0.29;149.16;;;;;11.10;1.00;;;;;;2260573;61;963;-85
2021/04/16 00:09:25;343632.00;1.15;592.92;87255.00;0.29;151.57;;;;;10.90;1.00;;;;;;2263992;61;1028;-86
2021/04/16 00:11:52;288360.00;0.96;497.91;88385.00;0.29;153.52;;;;;10.50;1.00;;;;;;2264647;61;1441;-85
2021/04/16 00:14:19;167589.00;0.56;290.11;77800.00;0.26;135.24;;;;;10.70;1.00;;;;;;2258057;61;2000;-87
2021/04/16 00:16:46;331182.00;1.10;571.52;95112.00;0.32;165.13;;;;;11.00;1.00;;;;;;2258070;61;923;-85
2021/04/16 00:19:13;288304.00;0.96;497.81;86888.00;0.29;150.93;;;;;11.20;1.00;;;;;;2258038;61;955;-86
2021/04/16 00:21:40;350379.00;1.17;604.51;131373.00;0.44;227.70;;;;;11.50;1.00;;;;;;2265057;61;1455;-86
2021/04/16 00:24:11;168653.00;0.56;291.95;85138.00;0.28;147.91;;;;;11.90;1.00;;;;;;2261292;61;952;-87
2021/04/16 00:26:39;354905.00;1.18;612.29;87341.00;0.29;151.72;;;;;12.00;1.00;;;;;;2257989;61;949;-86
2021/04/16 00:29:06;330004.00;1.10;569.49;82292.00;0.27;143.00;;;;;11.90;1.00;;;;;;2256528;61;963;-86
2021/04/16 00:31:34;297909.00;0.99;514.33;83589.00;0.28;145.24;;;;;11.40;1.00;;;;;;2252491;61;1353;-88
2021/04/16 00:34:01;509343.00;1.70;877.91;101335.00;0.34;175.88;;;;;11.10;1.00;;;;;;2244503;61;2007;-87
2021/04/16 00:36:28;326568.00;1.09;563.59;89440.00;0.30;155.34;;;;;10.50;1.00;;;;;;2241334;61;990;-87
2021/04/16 00:38:55;318075.00;1.06;548.99;85042.00;0.28;147.75;;;;;10.30;1.00;;;;;;2244549;61;991;-88
2021/04/16 00:41:26;267146.00;0.89;461.44;85696.00;0.29;148.88;;;;;10.10;1.00;;;;;;2241247;61;1343;-88
2021/04/16 00:43:53;529837.00;1.77;913.21;89526.00;0.30;155.49;;;;;10.20;1.00;;;;;;2244674;61;987;-87
2021/04/16 00:46:25;488308.00;1.63;841.70;89017.00;0.30;154.61;;;;;10.10;1.00;;;;;;2245839;61;946;-87
2021/04/16 00:48:55;554259.00;1.85;955.30;87480.00;0.29;151.96;;;;;9.40;1.00;;;;;;2253241;61;968;-87
2021/04/16 00:51:26;431769.00;1.44;744.43;85666.00;0.29;148.82;;;;;9.30;1.00;;;;;;2258271;61;1465;-86
2021/04/16 00:53:52;467520.00;1.56;805.92;77313.00;0.26;134.40;;;;;9.20;1.00;;;;;;2257891;61;1914;-88
2021/04/16 00:56:19;440320.00;1.47;759.13;85820.00;0.29;149.09;;;;;9.10;1.00;;;;;;2265009;61;1057;-88
2021/04/16 00:58:45;501893.00;1.67;865.08;88677.00;0.30;154.02;;;;;9.40;1.00;;;;;;2256431;61;956;-87
2021/04/16 01:01:13;428426.00;1.43;738.68;78107.00;0.26;135.77;;;;;9.70;1.00;;;;;;2253086;61;1282;-87
2021/04/16 01:03:39;410695.00;1.37;708.19;86825.00;0.29;150.83;;;;;9.50;1.00;;;;;;2256489;61;1036;-88
2021/04/16 01:06:09;489659.00;1.63;844.02;86115.00;0.29;149.60;;;;;9.70;1.00;;;;;;2256478;61;1043;-88
2021/04/16 01:22:08;133250.00;0.44;230.93;19642.00;0.07;34.65;;;;;10.80;1.00;;;;;;2264740;61;1343;-86
2021/04/16 01:24:36;195094.00;0.65;337.48;26324.00;0.09;46.22;;;;;11.20;1.00;;;;;;2257520;61;988;-87
2021/04/16 01:27:10;276211.00;0.92;477.02;0.00;0.00;0.62;;;;;11.30;1.00;;;;;;2260342;61;959;-85
2021/04/16 01:29:42;242162.00;0.81;418.47;0.00;0.00;0.62;;;;;11.20;1.00;;;;;;2256987;61;1048;-86
2021/04/16 01:32:11;190561.00;0.64;329.67;0.00;0.00;0.62;;;;;11.00;1.00;;;;;;2256260;61;1528;-85
2021/04/16 01:34:37;206890.00;0.69;357.78;0.00;0.00;0.62;;;;;10.90;1.00;;;;;;2253002;61;2013;-87
2021/04/16 01:37:05;281964.00;0.94;486.91;0.00;0.00;0.62;;;;;10.70;1.00;;;;;;2252773;61;1047;-86
2021/04/16 01:39:33;214186.00;0.71;370.34;0.00;0.00;0.62;;;;;10.70;1.00;;;;;;2252311;61;987;-87
2021/04/16 01:42:01;209824.00;0.70;362.83;0.00;0.00;0.62;;;;;10.90;1.00;;;;;;2244012;61;1272;-86
2021/04/16 01:44:29;258982.00;0.86;447.40;0.00;0.00;0.62;;;;;11.10;1.00;;;;;;2245326;61;1032;-88
2021/04/16 01:46:58;219437.00;0.73;379.37;0.00;0.00;0.62;;;;;11.60;1.00;;;;;;2244986;61;969;-88
2021/04/16 01:49:27;908818.00;3.03;1571.61;245788.00;0.82;424.71;;;;;11.80;1.00;;;;;;2248380;61;1152;-87
2021/04/16 01:51:55;361166.00;1.20;623.05;0.00;0.00;0.62;;;;;11.80;1.00;;;;;;2248227;61;1256;-88
2021/04/16 01:54:25;328606.00;1.10;567.09;0.00;0.00;0.62;;;;;11.70;1.00;;;;;;2248173;61;2000;-88
2021/04/16 01:56:54;178169.00;0.59;308.34;0.00;0.00;0.62;;;;;11.50;1.00;;;;;;2245855;61;957;-87
2021/04/16 01:59:24;155840.00;0.52;269.87;0.00;0.00;0.62;;;;;11.60;1.00;;;;;;2248140;61;969;-88
2021/04/16 02:01:51;203133.00;0.68;351.32;0.00;0.00;0.62;;;;;11.90;1.00;;;;;;2241716;61;1392;-88
2021/04/16 02:04:19;348307.00;1.16;600.95;0.00;0.00;0.62;;;;;12.10;1.00;;;;;;2241499;61;990;-89
2021/04/16 02:06:46;306370.00;1.02;528.87;0.00;0.00;0.62;;;;;12.30;1.00;;;;;;2241724;61;972;-89
2021/04/16 02:09:16;587347.00;1.96;1012.38;20272.00;0.07;35.74;;;;;12.30;1.00;;;;;;2248128;61;1015;-86
2021/04/16 02:11:45;260900.00;0.87;450.70;26029.00;0.09;45.71;;;;;12.20;1.00;;;;;;2241600;61;1386;-88
2021/04/16 02:14:12;190387.00;0.63;329.37;0.00;0.00;0.62;;;;;11.90;1.00;;;;;;2250603;61;1985;-88
2021/04/16 02:16:39;215533.00;0.72;372.66;0.00;0.00;0.62;;;;;11.60;1.00;;;;;;2257621;61;971;-88
2021/04/16 02:19:06;170204.00;0.57;294.62;0.00;0.00;0.62;;;;;11.30;1.00;;;;;;2257667;61;996;-87
2021/04/16 02:21:33;371596.00;1.24;640.98;0.00;0.00;0.62;;;;;11.00;1.00;;;;;;2264440;61;1336;-86
2021/04/16 02:24:00;512207.00;1.71;882.84;21609.00;0.07;38.06;;;;;11.20;1.00;;;;;;2264648;61;970;-87
2021/04/16 02:26:27;356171.00;1.19;614.47;0.00;0.00;0.62;;;;;11.40;1.00;;;;;;2254140;61;991;-88
2021/04/16 02:28:54;363890.00;1.21;627.73;0.00;0.00;0.62;;;;;11.20;1.00;;;;;;2257665;61;937;-87
2021/04/16 02:31:20;287639.00;0.96;496.67;0.00;0.00;0.62;;;;;11.10;1.00;;;;;;2257576;61;1385;-85
2021/04/16 02:33:48;420607.00;1.40;725.23;82072.00;0.27;142.62;;;;;11.20;1.00;;;;;;2264369;61;1916;-87
2021/04/16 02:36:15;279814.00;0.93;483.22;0.00;0.00;0.62;;;;;11.20;1.00;;;;;;2257614;61;998;-87
2021/04/16 02:38:41;499689.00;1.67;861.29;85755.00;0.29;148.98;;;;;11.00;1.00;;;;;;2257577;61;952;-87
2021/04/16 02:41:08;367140.00;1.22;633.32;88119.00;0.29;153.06;;;;;11.20;1.00;;;;;;2264636;61;1395;-88
2021/04/16 02:43:34;452195.00;1.51;779.56;82089.00;0.27;142.65;;;;;11.20;1.00;;;;;;2257536;61;932;-88
2021/04/16 02:46:01;584984.00;1.95;1008.30;87164.00;0.29;151.41;;;;;11.10;1.00;;;;;;2264577;61;1026;-87
2021/04/16 02:48:28;581180.00;1.94;1001.73;88458.00;0.29;153.65;;;;;11.10;1.00;;;;;;2264513;61;925;-86
2021/04/16 02:50:56;529737.00;1.77;913.04;81048.00;0.27;140.85;;;;;10.80;1.00;;;;;;2260761;61;1423;-87
2021/04/16 02:53:23;224646.00;0.75;388.34;0.00;0.00;0.62;;;;;10.90;1.00;;;;;;2260789;61;1999;-87
2021/04/16 02:55:49;559488.00;1.86;964.32;86937.00;0.29;151.02;;;;;11.20;1.00;;;;;;2257276;61;986;-87
2021/04/16 02:58:16;457122.00;1.52;788.03;88041.00;0.29;152.92;;;;;11.50;1.00;;;;;;2257548;61;919;-88
2021/04/16 03:00:42;589570.00;1.97;1016.21;76262.00;0.25;132.58;;;;;11.40;1.00;;;;;;2264328;61;1228;-88
2021/04/16 03:03:09;525191.00;1.75;905.21;79053.00;0.26;137.40;;;;;11.70;1.00;;;;;;2260797;61;932;-88
2021/04/16 03:05:35;492056.00;1.64;848.15;83742.00;0.28;145.50;;;;;11.60;1.00;;;;;;2253970;61;1058;-88
2021/04/16 03:08:02;603133.00;2.01;1039.63;77630.00;0.26;134.94;;;;;11.30;1.00;;;;;;2256026;61;968;-88
2021/04/16 03:10:32;392943.00;1.31;677.67;78267.00;0.26;136.04;;;;;11.20;1.00;;;;;;2248016;61;1312;-87
2021/04/16 03:12:58;422310.00;1.41;728.16;0.00;0.00;0.62;;;;;11.20;1.00;;;;;;2248018;61;1915;-87
2021/04/16 03:15:25;445039.00;1.48;767.25;0.00;0.00;0.62;;;;;11.30;1.00;;;;;;2248078;61;983;-86
2021/04/16 03:17:51;294336.00;0.98;508.18;0.00;0.00;0.62;;;;;11.30;1.00;;;;;;2247961;61;1068;-87
2021/04/16 03:20:22;271458.00;0.90;468.85;0.00;0.00;0.62;;;;;11.60;1.00;;;;;;2247982;61;1348;-87
2021/04/16 03:22:49;247181.00;0.82;427.10;0.00;0.00;0.62;;;;;11.40;1.00;;;;;;2240146;61;997;-87
2021/04/16 03:25:17;215118.00;0.72;371.94;0.00;0.00;0.62;;;;;11.10;1.00;;;;;;2241404;61;1036;-86
2021/04/16 03:27:44;313393.00;1.04;540.94;0.00;0.00;0.62;;;;;11.20;1.00;;;;;;2249293;61;999;-87
2021/04/16 03:30:16;303456.00;1.01;523.86;0.00;0.00;0.62;;;;;11.40;1.00;;;;;;2255841;61;1300;-87
2021/04/16 03:32:43;162373.00;0.54;281.13;0.00;0.00;0.62;;;;;11.30;1.00;;;;;;2255970;61;983;-86
2021/04/16 03:35:11;262328.00;0.87;453.15;0.00;0.00;0.62;;;;;11.10;1.00;;;;;;2255950;61;2007;-88
2021/04/16 03:37:37;167102.00;0.56;289.27;0.00;0.00;0.62;;;;;10.90;1.00;;;;;;2256036;61;916;-88
2021/04/16 03:40:05;101148.00;0.34;175.55;0.00;0.00;0.62;;;;;11.20;1.00;;;;;;2257364;61;1309;-85
2021/04/16 03:42:34;122067.00;0.41;211.65;0.00;0.00;0.62;;;;;11.10;1.00;;;;;;2264425;61;1021;-88
2021/04/16 03:45:02;333882.00;1.11;576.16;35948.00;0.12;62.88;;;;;11.40;1.00;;;;;;2257974;61;1016;-87
2021/04/16 03:47:29;106856.00;0.36;185.40;0.00;0.00;0.62;;;;;11.50;1.00;;;;;;2265112;61;1009;-86
2021/04/16 03:49:56;257378.00;0.86;444.64;0.00;0.00;0.62;;;;;11.50;1.00;;;;;;2265103;61;1316;-88
2021/04/16 03:52:24;294840.00;0.98;509.05;0.00;0.00;0.62;;;;;11.60;1.00;;;;;;2258083;61;961;-85
2021/04/16 03:54:52;273814.00;0.91;472.90;0.00;0.00;0.62;;;;;11.40;1.00;;;;;;2256506;61;1928;-87
2021/04/16 03:57:19;236530.00;0.79;408.78;0.00;0.00;0.62;;;;;11.10;1.00;;;;;;2256680;61;1014;-88
2021/04/16 03:59:46;325857.00;1.09;562.37;0.00;0.00;0.62;;;;;11.20;1.00;;;;;;2256519;61;1369;-87
2021/04/16 04:02:13;186950.00;0.62;323.46;0.00;0.00;0.62;;;;;11.00;1.00;;;;;;2253295;61;991;-87
2021/04/16 04:04:39;171396.00;0.57;296.67;0.00;0.00;0.62;;;;;10.80;1.00;;;;;;2252791;61;1037;-86
2021/04/16 04:07:06;266045.00;0.89;459.54;0.00;0.00;0.62;;;;;10.70;1.00;;;;;;2249981;61;974;-87
2021/04/16 04:09:35;130777.00;0.44;226.67;0.00;0.00;0.62;;;;;10.80;1.00;;;;;;2249916;61;943;-87
2021/04/16 04:12:01;273465.00;0.91;472.30;0.00;0.00;0.62;;;;;11.30;1.00;;;;;;2257681;61;1464;-89
2021/04/16 04:14:29;246585.00;0.82;426.08;0.00;0.00;0.62;;;;;11.50;1.00;;;;;;2257908;61;2022;-88
2021/04/16 04:16:57;350001.00;1.17;603.86;0.00;0.00;0.62;;;;;11.70;1.00;;;;;;2264695;61;1016;-86
2021/04/16 04:19:26;114389.00;0.38;198.40;0.00;0.00;0.62;;;;;11.90;1.00;;;;;;2261322;61;1017;-89
2021/04/16 04:21:55;218347.00;0.73;377.50;0.00;0.00;0.62;;;;;11.90;1.00;;;;;;2256460;61;1315;-87
2021/04/16 04:24:23;88636.00;0.30;153.95;0.00;0.00;0.62;;;;;11.60;1.00;;;;;;2253178;61;979;-88
2021/04/16 04:26:50;201617.00;0.67;348.71;0.00;0.00;0.62;;;;;11.30;1.00;;;;;;2256403;61;991;-88
2021/04/16 04:29:20;199753.00;0.67;345.50;0.00;0.00;0.62;;;;;11.20;1.00;;;;;;2256519;61;978;-87
2021/04/16 04:31:47;132966.00;0.44;230.44;0.00;0.00;0.62;;;;;11.10;1.00;;;;;;2256482;61;1355;-89
2021/04/16 04:34:16;219701.00;0.73;379.83;0.00;0.00;0.62;;;;;11.20;1.00;;;;;;2256407;61;1991;-87
2021/04/16 04:36:42;150377.00;0.50;260.46;0.00;0.00;0.62;;;;;11.00;1.00;;;;;;2256424;61;966;-88
2021/04/16 04:39:09;187426.00;0.62;324.28;19511.00;0.07;34.42;;;;;10.90;1.00;;;;;;2254609;61;1037;-88
2021/04/16 04:41:35;193634.00;0.65;334.96;0.00;0.00;0.62;;;;;10.90;1.00;;;;;;2256333;61;1424;-88
2021/04/16 04:44:02;402753.00;1.34;694.54;34125.00;0.11;59.72;;;;;11.00;1.00;;;;;;2256309;61;977;-88
2021/04/16 04:46:28;209052.00;0.70;361.50;0.00;0.00;0.62;;;;;10.90;1.00;;;;;;2256246;61;1006;-88
2021/04/16 04:48:54;168477.00;0.56;291.64;0.00;0.00;0.62;;;;;11.30;1.00;;;;;;2256223;61;1020;-88
2021/04/16 04:51:22;115994.00;0.39;201.17;0.00;0.00;0.62;;;;;11.50;1.00;;;;;;2252993;61;1366;-88
2021/04/16 04:53:48;166765.00;0.56;288.69;0.00;0.00;0.62;;;;;11.50;1.00;;;;;;2248313;61;1930;-88
2021/04/16 04:56:15;271084.00;0.90;468.21;0.00;0.00;0.62;;;;;11.70;1.00;;;;;;2248282;61;1077;-87
2021/04/16 04:58:41;296243.00;0.99;511.46;0.00;0.00;0.62;;;;;11.20;1.00;;;;;;2241260;61;1131;-87
2021/04/16 05:01:07;352374.00;1.17;607.94;0.00;0.00;0.62;;;;;11.40;1.00;;;;;;2245048;61;1352;-88
2021/04/16 05:03:34;317181.00;1.06;547.45;0.00;0.00;0.62;;;;;10.90;1.00;;;;;;2245037;61;1194;-88
2021/04/16 05:06:00;400551.00;1.34;690.75;14160.00;0.05;25.16;;;;;10.40;1.00;;;;;;2244637;61;965;-88
2021/04/16 05:08:27;428166.00;1.43;738.23;0.00;0.00;0.62;;;;;10.40;1.00;;;;;;2244457;61;1020;-89
2021/04/16 05:10:54;273573.00;0.91;472.49;0.00;0.00;0.62;;;;;10.10;1.00;;;;;;2245180;61;1469;-89
2021/04/16 05:13:20;516008.00;1.72;889.39;0.00;0.00;0.62;;;;;10.30;1.00;;;;;;2248961;61;2003;-89
2021/04/16 05:15:47;367963.00;1.23;634.74;0.00;0.00;0.62;;;;;10.70;1.00;;;;;;2257052;61;1009;-88
2021/04/16 05:18:13;213434.00;0.71;369.04;0.00;0.00;0.62;;;;;10.90;1.00;;;;;;2264352;61;1029;-87
2021/04/16 05:20:39;375134.00;1.25;647.06;0.00;0.00;0.62;;;;;11.20;1.00;;;;;;2264324;61;1274;-89
2021/04/16 05:23:06;422968.00;1.41;729.29;49775.00;0.17;86.80;;;;;10.90;1.00;;;;;;2264233;61;1023;-87
2021/04/16 05:25:33;332378.00;1.11;573.57;0.00;0.00;0.62;;;;;10.50;1.00;;;;;;2264187;61;994;-88
2021/04/16 05:27:59;259757.00;0.87;448.73;0.00;0.00;0.62;;;;;10.00;1.00;;;;;;2264255;61;947;-86
2021/04/16 05:30:27;364029.00;1.21;627.97;0.00;0.00;0.62;;;;;9.60;1.00;;;;;;2257556;61;1390;-87
2021/04/16 05:32:53;392983.00;1.31;677.74;0.00;0.00;0.62;;;;;9.40;1.00;;;;;;2260779;61;1019;-85
2021/04/16 05:35:20;319802.00;1.07;551.96;0.00;0.00;0.62;;;;;9.50;1.00;;;;;;2260134;61;2001;-85
2021/04/16 05:37:46;375798.00;1.25;648.20;0.00;0.00;0.62;;;;;9.80;1.00;;;;;;2256856;61;967;-85
2021/04/16 05:40:14;444005.00;1.48;765.47;0.00;0.00;0.62;;;;;10.20;1.00;;;;;;2253572;61;1484;-86
2021/04/16 05:42:42;176548.00;0.59;305.54;0.00;0.00;0.62;;;;;10.70;1.00;;;;;;2253573;61;982;-85
2021/04/16 05:45:09;266989.00;0.89;461.17;0.00;0.00;0.62;;;;;10.90;1.00;;;;;;2260237;61;992;-86
2021/04/16 05:47:36;298229.00;0.99;514.88;0.00;0.00;0.62;;;;;11.40;1.00;;;;;;2256819;61;985;-88
2021/04/16 05:50:05;332354.00;1.11;573.53;0.00;0.00;0.62;;;;;11.40;1.00;;;;;;2256079;61;1401;-87
2021/04/16 05:52:31;237692.00;0.79;410.78;0.00;0.00;0.62;;;;;11.00;1.00;;;;;;2256730;61;954;-86
2021/04/16 05:57:28;168688.00;0.56;292.01;0.00;0.00;0.62;;;;;12.20;1.00;;;;;;2266506;61;1416;-88
2021/04/16 05:59:55;459225.00;1.53;791.65;18434.00;0.06;32.56;;;;;11.80;1.00;;;;;;2256175;61;1356;-86
2021/04/16 06:12:21;580652.00;1.94;1000.82;0.00;0.00;0.62;;;;;12.10;1.00;;;;;;2270049;61;1414;-88
2021/04/16 06:22:17;325973.00;1.09;562.56;0.00;0.00;0.62;;;;;11.60;1.00;;;;;;2270344;61;1399;-87
2021/04/16 06:24:44;64698.00;0.22;112.60;0.00;0.00;0.62;;;;;12.00;1.00;;;;;;2264962;61;1000;-88
2021/04/16 06:27:11;14506.00;0.05;25.75;0.00;0.00;0.62;;;;;12.20;1.00;;;;;;2268572;61;1114;-86
2021/04/16 06:29:38;205704.00;0.69;355.74;0.00;0.00;0.62;;;;;11.50;1.00;;;;;;2268649;61;950;-90
2021/04/16 06:32:05;192964.00;0.64;333.81;0.00;0.00;0.62;;;;;11.30;1.00;;;;;;2268594;61;1298;-89
2021/04/16 06:34:32;96788.00;0.32;168.03;0.00;0.00;0.62;;;;;11.20;1.00;;;;;;2263961;61;1915;-88
2021/04/16 06:36:58;134189.00;0.45;232.55;0.00;0.00;0.62;;;;;11.80;1.00;;;;;;2264109;61;957;-89
2021/04/16 06:51:59;159668.00;0.53;276.47;0.00;0.00;0.62;;;;;12.00;1.00;;;;;;2266249;61;1552;-88
2021/04/16 06:56:57;23024.00;0.08;40.51;0.00;0.00;0.62;;;;;13.10;1.00;;;;;;2266723;61;1304;-89
2021/04/16 07:04:40;482785.00;1.61;832.19;0.00;0.00;0.62;;;;;11.30;1.00;;;;;;2266127;61;1458;-87
2021/04/16 07:07:21;419654.00;1.40;723.60;0.00;0.00;0.62;;;;;10.50;1.00;;;;;;2263976;61;997;-87
2021/04/16 07:09:51;307836.00;1.03;531.39;0.00;0.00;0.62;;;;;11.10;1.00;;;;;;2255905;61;1348;-88
2021/04/16 07:12:20;209171.00;0.70;361.71;0.00;0.00;0.62;;;;;11.00;1.00;;;;;;2247833;61;983;-88
2021/04/16 07:14:51;448302.00;1.49;772.86;0.00;0.00;0.62;;;;;10.10;1.00;;;;;;2247831;61;1936;-89
2021/04/16 07:17:20;96498.00;0.32;167.53;0.00;0.00;0.62;;;;;9.80;1.00;;;;;;2247824;61;979;-88
2021/04/16 07:19:47;242405.00;0.81;418.89;0.00;0.00;0.62;;;;;10.10;1.00;;;;;;2248314;61;1633;-90
2021/04/16 07:22:21;125140.00;0.42;216.95;0.00;0.00;0.62;;;;;10.30;1.00;;;;;;2248696;61;1072;-89
2021/04/16 07:24:49;300069.00;1.00;518.04;0.00;0.00;0.62;;;;;10.60;1.00;;;;;;2243989;61;963;-90
2021/04/16 07:27:19;343903.00;1.15;593.38;0.00;0.00;0.62;;;;;11.70;1.00;;;;;;2246803;61;984;-91
2021/04/16 07:32:39;485381.00;1.62;836.66;95074.00;0.32;165.07;;;;;11.00;1.00;;;;;;2266846;61;1379;-90
2021/04/16 07:37:43;399619.00;1.33;689.15;78394.00;0.26;136.26;;;;;9.90;1.00;;;;;;2267053;61;1462;-89
2021/04/16 07:42:49;231949.00;0.77;400.90;81505.00;0.27;141.64;;;;;10.50;1.00;;;;;;2267084;61;1387;-90
2021/04/16 08:00:30;150135.00;0.50;260.04;0.00;0.00;0.62;;;;;11.60;1.00;;;;;;2270494;61;1399;-87
2021/04/16 08:03:09;101035.00;0.34;175.36;0.00;0.00;0.62;;;;;11.30;1.00;;;;;;2269039;61;1042;-89
2021/04/16 08:05:40;36061.00;0.12;63.07;0.00;0.00;0.62;;;;;11.10;1.00;;;;;;2269079;61;1038;-88
2021/04/16 08:08:25;29166.00;0.10;51.14;0.00;0.00;0.62;;;;;10.30;1.00;;;;;;2268977;61;1687;-89
2021/04/16 08:10:55;182793.00;0.61;316.30;75739.00;0.25;131.68;;;;;10.00;1.00;;;;;;2256399;61;1282;-89
2021/04/16 08:13:25;294502.00;0.98;508.47;141398.00;0.47;244.98;;;;;10.70;1.00;;;;;;2248422;61;2005;-88
2021/04/16 08:15:54;313438.00;1.04;541.02;88130.00;0.29;153.08;;;;;10.40;1.00;;;;;;2248444;61;1055;-88
2021/04/16 08:18:27;260351.00;0.87;449.75;83719.00;0.28;145.46;;;;;10.00;1.00;;;;;;2248516;61;1118;-87
2021/04/16 08:21:04;328425.00;1.09;566.78;92212.00;0.31;160.13;;;;;9.30;1.00;;;;;;2245166;61;1356;-88
2021/04/16 08:23:40;195350.00;0.65;337.92;90218.00;0.30;156.68;;;;;8.70;1.00;;;;;;2244494;61;996;-88
2021/04/16 08:26:09;514733.00;1.72;887.19;87185.00;0.29;151.45;;;;;7.90;1.00;;;;;;2244582;61;1032;-89
2021/04/16 08:28:49;271792.00;0.91;469.43;89522.00;0.30;155.48;;;;;7.50;1.00;;;;;;2244361;61;1021;-87
2021/04/16 08:31:24;0.00;0.00;0.62;0.00;0.00;0.62;;;;;7.70;1.00;;;;;;2247882;61;1433;-88
2021/04/16 08:33:57;206836.00;0.69;357.69;82967.00;0.28;144.16;;;;;7.70;1.00;;;;;;2240457;61;2005;-88
2021/04/16 08:36:31;121050.00;0.40;209.89;0.00;0.00;0.62;;;;;7.60;1.00;;;;;;2240608;61;1027;-88
2021/04/16 08:39:00;8003.00;0.03;14.49;0.00;0.00;0.62;;;;;7.70;1.00;;;;;;2240650;61;999;-89
2021/04/16 08:41:32;77496.00;0.26;134.71;0.00;0.00;0.62;;;;;7.40;1.00;;;;;;2240970;61;1345;-88
2021/04/16 08:44:02;19540.00;0.07;34.47;0.00;0.00;0.62;;;;;7.30;1.00;;;;;;2248525;61;1087;-90
2021/04/16 08:46:34;191506.00;0.64;331.30;52621.00;0.18;91.72;;;;;7.40;1.00;;;;;;2241964;61;981;-89
2021/04/16 08:49:08;75992.00;0.25;132.11;0.00;0.00;0.62;;;;;7.40;1.00;;;;;;2253256;61;1013;-88
2021/04/16 08:51:39;18930.00;0.06;33.42;0.00;0.00;0.62;;;;;7.40;1.00;;;;;;2261861;61;1446;-89
2021/04/16 08:54:09;56675.00;0.19;98.73;0.00;0.00;0.62;;;;;7.10;1.00;;;;;;2264366;61;1993;-87
2021/04/16 08:56:47;31924.00;0.11;55.91;0.00;0.00;0.62;;;;;7.10;1.00;;;;;;2257729;61;1009;-88
2021/04/16 08:59:16;19838.00;0.07;34.99;0.00;0.00;0.62;;;;;7.40;1.00;;;;;;2260952;61;966;-88
2021/04/16 09:01:53;110310.00;0.37;191.36;0.00;0.00;0.62;;;;;7.80;1.00;;;;;;2260359;61;1441;-89
2021/04/16 09:04:51;0.00;0.00;0.62;0.00;0.00;0.62;;;;;7.70;1.00;;;;;;2256328;61;1014;-89
2021/04/16 09:07:45;510963.00;1.70;880.70;82869.00;0.28;143.99;;;;;8.00;1.00;;;;;;2240562;61;1037;-87
2021/04/16 09:10:41;96574.00;0.32;167.66;0.00;0.00;0.62;;;;;8.10;1.00;;;;;;2239447;61;1279;-88
2021/04/16 09:13:13;8228.00;0.03;14.88;0.00;0.00;0.62;;;;;7.50;1.00;;;;;;2240408;61;1000;-87
2021/04/16 09:15:43;24281.00;0.08;42.68;0.00;0.00;0.62;;;;;7.40;1.00;;;;;;2237050;61;1935;-87
2021/04/16 09:18:34;76849.00;0.26;133.59;0.00;0.00;0.62;;;;;7.60;1.00;;;;;;2232515;62;946;-87
2021/04/16 09:21:23;23009.00;0.08;40.48;0.00;0.00;0.62;;;;;7.50;1.00;;;;;;2228645;62;1414;-86
2021/04/16 09:23:55;7631.00;0.03;13.84;0.00;0.00;0.62;;;;;7.30;1.00;;;;;;2240256;61;1013;-88
2021/04/16 09:26:53;75609.00;0.25;131.45;0.00;0.00;0.62;;;;;7.20;1.00;;;;;;2237037;61;1044;-87
2021/04/16 09:29:44;34931.00;0.12;61.12;0.00;0.00;0.62;;;;;7.50;1.00;;;;;;2236992;62;994;-88
2021/04/16 09:32:50;0.00;0.00;0.62;0.00;0.00;0.62;;;;;7.70;1.00;;;;;;2239992;61;1510;-87
2021/04/16 09:35:53;4196.00;0.01;7.89;0.00;0.00;0.62;;;;;7.60;1.00;;;;;;2236934;61;2011;-85
2021/04/16 09:38:51;81497.00;0.27;141.62;0.00;0.00;0.62;;;;;7.90;1.00;;;;;;2234028;61;1212;-87
2021/04/16 09:41:36;6209.00;0.02;11.38;0.00;0.00;0.62;;;;;8.00;1.00;;;;;;2241164;61;1446;-86
2021/04/16 09:44:54;217054.00;0.72;375.27;44742.00;0.15;78.09;;;;;8.40;1.00;;;;;;2245358;61;1160;-90
2021/04/16 09:47:46;10619.00;0.04;19.02;0.00;0.00;0.62;;;;;8.40;1.00;;;;;;2268727;61;952;-86
2021/04/16 09:50:36;158351.00;0.53;274.20;30019.00;0.10;52.62;;;;;8.20;1.00;;;;;;2264880;61;1360;-89
2021/04/16 09:53:20;0.00;0.00;0.62;0.00;0.00;0.62;;;;;8.30;1.00;;;;;;2268788;61;946;-90
2021/04/16 10:03:37;340164.00;1.13;586.96;0.00;0.00;0.62;;;;;8.10;1.00;;;;;;2266459;61;1396;-88
2021/04/16 10:18:47;6545.00;0.02;11.96;0.00;0.00;0.62;;;;;8.90;1.00;;;;;;2270485;61;1382;-88
2021/04/16 10:21:26;80521.00;0.27;139.94;0.00;0.00;0.62;;;;;9.30;1.00;;;;;;2259979;61;1340;-89
2021/04/16 10:24:25;0.00;0.00;0.62;0.00;0.00;0.62;;;;;9.30;1.00;;;;;;2260185;61;1012;-90
2021/04/16 12:40:10;212917.00;0.71;368.16;98939.00;0.33;171.74;;;;;8.60;1.00;;;;;;2268980;61;1311;-88
2021/04/16 12:42:36;179791.00;0.60;311.13;90643.00;0.30;157.42;;;;;8.30;1.00;;;;;;2265166;61;985;-88
2021/04/16 12:45:03;172546.00;0.58;298.65;89890.00;0.30;156.12;;;;;8.20;1.00;;;;;;2268849;61;1073;-88
2021/04/16 12:47:32;248171.00;0.83;428.81;77099.00;0.26;134.03;;;;;8.30;1.00;;;;;;2268929;61;1027;-88
2021/04/16 12:50:00;169515.00;0.57;293.43;87616.00;0.29;152.19;;;;;8.30;1.00;;;;;;2268882;61;1322;-87
2021/04/16 12:52:29;228051.00;0.76;394.20;88376.00;0.29;153.50;;;;;8.40;1.00;;;;;;2268939;61;1021;-90
2021/04/16 12:54:55;206472.00;0.69;357.06;87587.00;0.29;152.14;;;;;8.50;1.00;;;;;;2265207;61;1994;-88
2021/04/16 12:57:31;176210.00;0.59;304.96;91157.00;0.30;158.31;;;;;8.60;1.00;;;;;;2268909;61;917;-89
2021/04/16 12:59:58;587046.00;1.96;1011.86;89951.00;0.30;156.22;;;;;8.20;1.00;;;;;;2260302;61;1342;-88
2021/04/16 13:02:27;198066.00;0.66;342.59;93813.00;0.31;162.89;;;;;8.00;1.00;;;;;;2257050;61;935;-87
2021/04/16 13:04:56;462556.00;1.54;797.38;169530.00;0.57;293.46;;;;;8.20;1.00;;;;;;2256296;61;977;-89
2021/04/16 13:07:24;289432.00;0.96;499.75;80611.00;0.27;140.09;;;;;8.20;1.00;;;;;;2256424;61;1050;-88
2021/04/16 13:09:51;181290.00;0.60;313.71;99471.00;0.33;172.66;;;;;8.40;1.00;;;;;;2249768;61;1473;-90
2021/04/16 13:12:19;179786.00;0.60;311.12;89790.00;0.30;155.95;;;;;8.30;1.00;;;;;;2256454;61;1001;-87
2021/04/16 13:14:45;178051.00;0.59;308.13;87485.00;0.29;151.96;;;;;8.30;1.00;;;;;;2256366;61;1912;-88
2021/04/16 13:17:15;275726.00;0.92;476.19;86349.00;0.29;150.00;;;;;8.20;1.00;;;;;;2248831;61;1099;-87
2021/04/16 13:19:43;329349.00;1.10;568.37;89065.00;0.30;154.69;;;;;8.30;1.00;;;;;;2248195;61;1023;-89
2021/04/16 13:22:12;299683.00;1.00;517.38;92743.00;0.31;161.04;;;;;8.80;1.00;;;;;;2249549;61;1225;-89
2021/04/16 13:24:40;183661.00;0.61;317.79;83641.00;0.28;145.33;;;;;8.70;1.00;;;;;;2256158;61;984;-87
2021/04/16 13:27:09;226552.00;0.76;391.62;85944.00;0.29;149.30;;;;;8.40;1.00;;;;;;2256197;61;1111;-87
2021/04/16 13:29:36;228939.00;0.76;395.72;89248.00;0.30;155.01;;;;;8.50;1.00;;;;;;2248199;61;975;-89
2021/04/16 13:32:05;262894.00;0.88;454.13;94271.00;0.31;163.68;;;;;8.40;1.00;;;;;;2248170;61;1257;-88
2021/04/16 13:34:33;234304.00;0.78;404.95;87314.00;0.29;151.67;;;;;8.20;1.00;;;;;;2249941;61;1993;-88
2021/04/16 13:37:00;118421264.00;394.74;67270968.00;87538.00;0.29;152.06;;;;;8.50;1.00;;;;;;2251180;61;959;-88
2021/04/16 13:39:27;199853.00;0.67;345.67;84430.00;0.28;146.69;;;;;8.20;1.00;;;;;;2256264;61;926;-87
2021/04/16 13:41:54;228598.00;0.76;395.14;89040.00;0.30;154.65;;;;;8.00;1.00;;;;;;2248997;61;1354;-88
2021/04/16 13:44:21;201428.00;0.67;348.38;99629.00;0.33;172.93;;;;;7.80;1.00;;;;;;2245725;61;1049;-88
2021/04/16 13:46:48;180835.00;0.60;312.93;101409.00;0.34;176.00;;;;;7.80;1.00;;;;;;2246821;61;1002;-88
2021/04/16 13:49:19;193877.00;0.65;335.38;85483.00;0.28;148.51;;;;;7.90;1.00;;;;;;2256231;61;938;-88
2021/04/16 13:51:46;194935.00;0.65;337.20;104927.00;0.35;182.08;;;;;8.00;1.00;;;;;;2252146;61;1444;-89
2021/04/16 13:54:12;183417.00;0.61;317.37;85241.00;0.28;148.09;;;;;8.30;1.00;;;;;;2252165;61;1920;-87